sensor_id;sensor_type;location;lat;lon;timestamp;pressure;altitude;pressure_sealevel;temperature;humidity
30967;BME280;17649;51.836;8.330;2023-04-26T00:02:04;101210.03;;;3.92;nan
30967;BME280;17649;51.836;8.330;2023-04-26T00:05:05;101218.47;;;3.96;nan
30967;BME280;17649;51.836;8.330;2023-04-26T00:08:06;101217.81;;;3.84;nan
30967;BME280;17649;51.836;8.330;2023-04-26T00:11:06;101224.66;;;3.84;nan
30967;BME280;17649;51.836;8.330;2023-04-26T00:14:07;101222.44;;;3.66;nan
30967;BME280;17649;51.836;8.330;2023-04-26T00:17:07;101216.47;;;3.65;nan
30967;BME280;17649;51.836;8.330;2023-04-26T00:20:08;101223.44;;;3.55;nan
30967;BME280;17649;51.836;8.330;2023-04-26T00:23:10;101226.13;;;3.48;nan
30967;BME280;17649;51.836;8.330;2023-04-26T00:26:11;101221.75;;;3.54;nan
30967;BME280;17649;51.836;8.330;2023-04-26T00:29:11;101218.34;;;3.54;nan
30967;BME280;17649;51.836;8.330;2023-04-26T00:32:11;101226.06;;;3.52;nan
30967;BME280;17649;51.836;8.330;2023-04-26T00:35:11;101215.97;;;3.45;nan
30967;BME280;17649;51.836;8.330;2023-04-26T00:38:11;101217.66;;;3.46;nan
30967;BME280;17649;51.836;8.330;2023-04-26T00:41:12;101223.63;;;3.45;nan
30967;BME280;17649;51.836;8.330;2023-04-26T00:44:12;101216.84;;;3.41;nan
30967;BME280;17649;51.836;8.330;2023-04-26T00:47:13;101221.19;;;3.37;nan
30967;BME280;17649;51.836;8.330;2023-04-26T00:50:13;101210.22;;;3.31;nan
30967;BME280;17649;51.836;8.330;2023-04-26T00:53:14;101214.41;;;3.35;nan
30967;BME280;17649;51.836;8.330;2023-04-26T00:56:15;101217.09;;;3.25;nan
30967;BME280;17649;51.836;8.330;2023-04-26T00:59:15;101214.50;;;3.30;nan
30967;BME280;17649;51.836;8.330;2023-04-26T01:02:15;101212.03;;;3.22;nan
30967;BME280;17649;51.836;8.330;2023-04-26T01:05:18;101212.19;;;3.13;nan
30967;BME280;17649;51.836;8.330;2023-04-26T01:08:18;101217.31;;;3.13;nan
30967;BME280;17649;51.836;8.330;2023-04-26T01:11:19;101214.78;;;3.10;nan
30967;BME280;17649;51.836;8.330;2023-04-26T01:14:21;101223.34;;;3.08;nan
30967;BME280;17649;51.836;8.330;2023-04-26T01:20:26;101222.66;;;2.98;nan
30967;BME280;17649;51.836;8.330;2023-04-26T01:23:26;101231.13;;;3.00;nan
30967;BME280;17649;51.836;8.330;2023-04-26T01:26:26;101224.28;;;3.02;nan
30967;BME280;17649;51.836;8.330;2023-04-26T01:29:26;101223.41;;;3.03;nan
30967;BME280;17649;51.836;8.330;2023-04-26T01:32:27;101228.56;;;3.02;nan
30967;BME280;17649;51.836;8.330;2023-04-26T01:35:27;101220.22;;;2.89;nan
30967;BME280;17649;51.836;8.330;2023-04-26T01:38:27;101225.38;;;2.86;nan
30967;BME280;17649;51.836;8.330;2023-04-26T01:41:28;101227.22;;;2.75;nan
30967;BME280;17649;51.836;8.330;2023-04-26T01:44:28;101229.66;;;2.84;nan
30967;BME280;17649;51.836;8.330;2023-04-26T01:47:28;101228.81;;;2.83;nan
30967;BME280;17649;51.836;8.330;2023-04-26T01:50:28;101222.13;;;2.73;nan
30967;BME280;17649;51.836;8.330;2023-04-26T01:53:28;101229.00;;;2.69;nan
30967;BME280;17649;51.836;8.330;2023-04-26T01:56:29;101227.31;;;2.67;nan
30967;BME280;17649;51.836;8.330;2023-04-26T01:59:29;101225.78;;;2.55;nan
30967;BME280;17649;51.836;8.330;2023-04-26T02:02:30;101230.06;;;2.50;nan
30967;BME280;17649;51.836;8.330;2023-04-26T02:05:30;101234.31;;;2.51;nan
30967;BME280;17649;51.836;8.330;2023-04-26T02:08:30;101236.91;;;2.48;nan
30967;BME280;17649;51.836;8.330;2023-04-26T02:11:30;101234.38;;;2.47;nan
30967;BME280;17649;51.836;8.330;2023-04-26T02:14:31;101236.00;;;2.52;nan
30967;BME280;17649;51.836;8.330;2023-04-26T02:17:31;101233.38;;;2.60;nan
30967;BME280;17649;51.836;8.330;2023-04-26T02:20:32;101233.56;;;2.43;nan
30967;BME280;17649;51.836;8.330;2023-04-26T02:23:32;101231.13;;;2.32;nan
30967;BME280;17649;51.836;8.330;2023-04-26T02:26:32;101233.75;;;2.28;nan
30967;BME280;17649;51.836;8.330;2023-04-26T02:29:32;101239.00;;;2.16;nan
30967;BME280;17649;51.836;8.330;2023-04-26T02:32:33;101230.50;;;2.14;nan
30967;BME280;17649;51.836;8.330;2023-04-26T02:35:36;101232.09;;;2.22;nan
30967;BME280;17649;51.836;8.330;2023-04-26T02:38:36;101236.31;;;2.26;nan
30967;BME280;17649;51.836;8.330;2023-04-26T02:41:37;101240.69;;;2.17;nan
30967;BME280;17649;51.836;8.330;2023-04-26T02:44:38;101242.31;;;2.24;nan
30967;BME280;17649;51.836;8.330;2023-04-26T03:09:39;101241.97;;;1.71;nan
30967;BME280;17649;51.836;8.330;2023-04-26T03:12:40;101244.44;;;1.77;nan
30967;BME280;17649;51.836;8.330;2023-04-26T03:15:44;101242.91;;;1.60;nan
30967;BME280;17649;51.836;8.330;2023-04-26T03:18:45;101254.78;;;1.67;nan
30967;BME280;17649;51.836;8.330;2023-04-26T03:21:45;101247.25;;;1.50;nan
30967;BME280;17649;51.836;8.330;2023-04-26T03:24:45;101243.09;;;1.38;nan
30967;BME280;17649;51.836;8.330;2023-04-26T03:27:46;101244.81;;;1.33;nan
30967;BME280;17649;51.836;8.330;2023-04-26T03:30:46;101248.22;;;1.32;nan
30967;BME280;17649;51.836;8.330;2023-04-26T03:33:48;101246.47;;;1.40;nan
30967;BME280;17649;51.836;8.330;2023-04-26T03:36:49;101239.84;;;1.13;nan
30967;BME280;17649;51.836;8.330;2023-04-26T03:39:49;101241.53;;;1.16;nan
30967;BME280;17649;51.836;8.330;2023-04-26T03:42:51;101233.81;;;1.28;nan
30967;BME280;17649;51.836;8.330;2023-04-26T03:45:51;101237.19;;;1.35;nan
30967;BME280;17649;51.836;8.330;2023-04-26T03:48:51;101236.31;;;1.31;nan
30967;BME280;17649;51.836;8.330;2023-04-26T03:51:52;101247.41;;;1.27;nan
30967;BME280;17649;51.836;8.330;2023-04-26T03:54:52;101235.47;;;1.32;nan
30967;BME280;17649;51.836;8.330;2023-04-26T03:57:52;101232.03;;;1.38;nan
30967;BME280;17649;51.836;8.330;2023-04-26T04:00:56;101235.47;;;1.35;nan
30967;BME280;17649;51.836;8.330;2023-04-26T04:03:57;101236.44;;;1.21;nan
30967;BME280;17649;51.836;8.330;2023-04-26T04:06:57;101236.41;;;1.22;nan
30967;BME280;17649;51.836;8.330;2023-04-26T04:09:58;101236.38;;;1.25;nan
30967;BME280;17649;51.836;8.330;2023-04-26T04:12:58;101234.63;;;1.36;nan
30967;BME280;17649;51.836;8.330;2023-04-26T04:15:58;101230.34;;;1.38;nan
30967;BME280;17649;51.836;8.330;2023-04-26T04:19:08;101236.22;;;1.49;nan
30967;BME280;17649;51.836;8.330;2023-04-26T04:22:08;101234.44;;;1.58;nan
30967;BME280;17649;51.836;8.330;2023-04-26T04:25:08;101242.00;;;1.68;nan
30967;BME280;17649;51.836;8.330;2023-04-26T04:28:13;101240.22;;;1.75;nan
30967;BME280;17649;51.836;8.330;2023-04-26T04:31:13;101241.06;;;1.77;nan
30967;BME280;17649;51.836;8.330;2023-04-26T04:34:13;101247.00;;;1.76;nan
30967;BME280;17649;51.836;8.330;2023-04-26T04:37:16;101242.75;;;1.78;nan
30967;BME280;17649;51.836;8.330;2023-04-26T04:40:17;101252.88;;;1.87;nan
30967;BME280;17649;51.836;8.330;2023-04-26T04:43:17;101247.72;;;1.92;nan
30967;BME280;17649;51.836;8.330;2023-04-26T04:46:17;101243.44;;;1.97;nan
30967;BME280;17649;51.836;8.330;2023-04-26T04:49:19;101247.78;;;1.87;nan
30967;BME280;17649;51.836;8.330;2023-04-26T04:52:19;101249.56;;;1.81;nan
30967;BME280;17649;51.836;8.330;2023-04-26T04:55:20;101252.09;;;1.81;nan
30967;BME280;17649;51.836;8.330;2023-04-26T04:58:21;101252.81;;;1.93;nan
30967;BME280;17649;51.836;8.330;2023-04-26T05:01:21;101256.06;;;2.12;nan
30967;BME280;17649;51.836;8.330;2023-04-26T05:04:21;101257.53;;;2.33;nan
30967;BME280;17649;51.836;8.330;2023-04-26T05:07:22;101259.09;;;2.45;nan
30967;BME280;17649;51.836;8.330;2023-04-26T05:10:22;101257.22;;;2.59;nan
30967;BME280;17649;51.836;8.330;2023-04-26T05:13:25;101254.59;;;2.65;nan
30967;BME280;17649;51.836;8.330;2023-04-26T05:16:25;101258.59;;;2.86;nan
30967;BME280;17649;51.836;8.330;2023-04-26T05:19:25;101256.81;;;2.91;nan
30967;BME280;17649;51.836;8.330;2023-04-26T05:22:25;101261.09;;;2.89;nan
30967;BME280;17649;51.836;8.330;2023-04-26T05:25:26;101258.22;;;3.13;nan
30967;BME280;17649;51.836;8.330;2023-04-26T05:28:26;101261.44;;;3.27;nan
30967;BME280;17649;51.836;8.330;2023-04-26T05:31:26;101266.59;;;3.23;nan
30967;BME280;17649;51.836;8.330;2023-04-26T05:34:27;101264.00;;;3.24;nan
30967;BME280;17649;51.836;8.330;2023-04-26T05:37:27;101266.41;;;3.35;nan
30967;BME280;17649;51.836;8.330;2023-04-26T05:40:27;101267.88;;;3.51;nan
30967;BME280;17649;51.836;8.330;2023-04-26T05:43:27;101275.31;;;3.67;nan
30967;BME280;17649;51.836;8.330;2023-04-26T05:46:28;101278.44;;;3.82;nan
30967;BME280;17649;51.836;8.330;2023-04-26T05:49:28;101279.97;;;3.94;nan
30967;BME280;17649;51.836;8.330;2023-04-26T05:52:28;101284.09;;;4.03;nan
30967;BME280;17649;51.836;8.330;2023-04-26T05:55:29;101280.41;;;4.16;nan
30967;BME280;17649;51.836;8.330;2023-04-26T05:58:29;101278.94;;;4.51;nan
30967;BME280;17649;51.836;8.330;2023-04-26T06:01:29;101271.19;;;4.54;nan
30967;BME280;17649;51.836;8.330;2023-04-26T06:04:30;101277.25;;;4.91;nan
30967;BME280;17649;51.836;8.330;2023-04-26T06:07:31;101276.28;;;5.34;nan
30967;BME280;17649;51.836;8.330;2023-04-26T06:10:32;101276.59;;;5.57;nan
30967;BME280;17649;51.836;8.330;2023-04-26T06:13:32;101271.88;;;5.41;nan
30967;BME280;17649;51.836;8.330;2023-04-26T06:16:32;101279.69;;;5.72;nan
30967;BME280;17649;51.836;8.330;2023-04-26T06:19:32;101275.34;;;5.74;nan
30967;BME280;17649;51.836;8.330;2023-04-26T06:22:33;101281.03;;;5.86;nan
30967;BME280;17649;51.836;8.330;2023-04-26T06:25:33;101284.88;;;6.04;nan
30967;BME280;17649;51.836;8.330;2023-04-26T06:28:33;101285.69;;;6.06;nan
30967;BME280;17649;51.836;8.330;2023-04-26T06:31:33;101279.69;;;6.06;nan
30967;BME280;17649;51.836;8.330;2023-04-26T06:34:34;101283.59;;;6.20;nan
30967;BME280;17649;51.836;8.330;2023-04-26T06:40:45;101295.47;;;6.57;nan
30967;BME280;17649;51.836;8.330;2023-04-26T06:53:19;101287.34;;;7.28;nan
30967;BME280;17649;51.836;8.330;2023-04-26T06:56:19;101287.53;;;7.50;nan
30967;BME280;17649;51.836;8.330;2023-04-26T06:59:23;101287.28;;;7.59;nan
30967;BME280;17649;51.836;8.330;2023-04-26T07:11:53;101296.00;;;8.06;nan
30967;BME280;17649;51.836;8.330;2023-04-26T07:14:54;101293.03;;;7.92;nan
30967;BME280;17649;51.836;8.330;2023-04-26T07:17:54;101295.13;;;7.55;nan
30967;BME280;17649;51.836;8.330;2023-04-26T07:20:54;101296.97;;;7.23;nan
30967;BME280;17649;51.836;8.330;2023-04-26T07:23:55;101290.75;;;7.57;nan
30967;BME280;17649;51.836;8.330;2023-04-26T07:26:55;101293.09;;;7.64;nan
30967;BME280;17649;51.836;8.330;2023-04-26T07:29:56;101299.59;;;7.76;nan
30967;BME280;17649;51.836;8.330;2023-04-26T07:32:56;101296.69;;;7.60;nan
30967;BME280;17649;51.836;8.330;2023-04-26T07:35:57;101302.91;;;7.80;nan
30967;BME280;17649;51.836;8.330;2023-04-26T07:38:58;101297.81;;;8.03;nan
30967;BME280;17649;51.836;8.330;2023-04-26T07:45:08;101301.00;;;7.85;nan
30967;BME280;17649;51.836;8.330;2023-04-26T07:48:09;101295.19;;;7.80;nan
30967;BME280;17649;51.836;8.330;2023-04-26T07:51:10;101290.41;;;7.94;nan
30967;BME280;17649;51.836;8.330;2023-04-26T07:54:10;101292.41;;;8.11;nan
30967;BME280;17649;51.836;8.330;2023-04-26T07:57:10;101283.56;;;8.18;nan
30967;BME280;17649;51.836;8.330;2023-04-26T08:00:11;101284.19;;;7.99;nan
30967;BME280;17649;51.836;8.330;2023-04-26T08:03:13;101284.66;;;7.86;nan
30967;BME280;17649;51.836;8.330;2023-04-26T08:06:14;101286.72;;;8.01;nan
30967;BME280;17649;51.836;8.330;2023-04-26T08:09:14;101279.50;;;7.86;nan
30967;BME280;17649;51.836;8.330;2023-04-26T08:15:26;101274.97;;;8.67;nan
30967;BME280;17649;51.836;8.330;2023-04-26T08:18:26;101273.84;;;9.83;nan
30967;BME280;17649;51.836;8.330;2023-04-26T08:21:26;101272.41;;;9.12;nan
30967;BME280;17649;51.836;8.330;2023-04-26T08:27:37;101276.50;;;9.40;nan
30967;BME280;17649;51.836;8.330;2023-04-26T08:30:38;101272.84;;;8.30;nan
30967;BME280;17649;51.836;8.330;2023-04-26T08:33:39;101279.75;;;8.54;nan
30967;BME280;17649;51.836;8.330;2023-04-26T08:36:39;101272.47;;;9.11;nan
30967;BME280;17649;51.836;8.330;2023-04-26T08:39:43;101277.88;;;9.26;nan
30967;BME280;17649;51.836;8.330;2023-04-26T08:42:43;101274.28;;;9.73;nan
30967;BME280;17649;51.836;8.330;2023-04-26T08:45:44;101271.00;;;10.10;nan
30967;BME280;17649;51.836;8.330;2023-04-26T08:48:48;101271.97;;;9.87;nan
30967;BME280;17649;51.836;8.330;2023-04-26T08:51:51;101265.06;;;9.88;nan
30967;BME280;17649;51.836;8.330;2023-04-26T08:54:52;101250.56;;;9.63;nan
30967;BME280;17649;51.836;8.330;2023-04-26T08:57:53;101254.97;;;10.02;nan
30967;BME280;17649;51.836;8.330;2023-04-26T09:00:54;101258.00;;;10.11;nan
30967;BME280;17649;51.836;8.330;2023-04-26T09:03:54;101257.56;;;10.22;nan
30967;BME280;17649;51.836;8.330;2023-04-26T09:06:57;101262.47;;;9.67;nan
30967;BME280;17649;51.836;8.330;2023-04-26T09:09:59;101264.84;;;9.08;nan
30967;BME280;17649;51.836;8.330;2023-04-26T09:13:00;101254.59;;;8.83;nan
30967;BME280;17649;51.836;8.330;2023-04-26T09:16:00;101271.34;;;9.40;nan
30967;BME280;17649;51.836;8.330;2023-04-26T09:19:00;101276.78;;;9.10;nan
30967;BME280;17649;51.836;8.330;2023-04-26T09:22:00;101278.84;;;8.79;nan
30967;BME280;17649;51.836;8.330;2023-04-26T09:25:01;101277.97;;;9.02;nan
30967;BME280;17649;51.836;8.330;2023-04-26T09:28:03;101276.22;;;8.80;nan
30967;BME280;17649;51.836;8.330;2023-04-26T09:31:03;101283.31;;;8.74;nan
30967;BME280;17649;51.836;8.330;2023-04-26T09:34:03;101292.56;;;8.56;nan
30967;BME280;17649;51.836;8.330;2023-04-26T09:37:04;101278.84;;;8.79;nan
30967;BME280;17649;51.836;8.330;2023-04-26T09:40:08;101286.16;;;9.13;nan
30967;BME280;17649;51.836;8.330;2023-04-26T09:43:12;101283.78;;;9.07;nan
30967;BME280;17649;51.836;8.330;2023-04-26T09:46:19;101288.47;;;8.97;nan
30967;BME280;17649;51.836;8.330;2023-04-26T09:49:21;101287.97;;;9.11;nan
30967;BME280;17649;51.836;8.330;2023-04-26T09:52:21;101294.16;;;9.29;nan
30967;BME280;17649;51.836;8.330;2023-04-26T09:55:28;101281.69;;;9.60;nan
30967;BME280;17649;51.836;8.330;2023-04-26T09:58:28;101294.69;;;9.79;nan
30967;BME280;17649;51.836;8.330;2023-04-26T10:01:29;101290.00;;;10.09;nan
30967;BME280;17649;51.836;8.330;2023-04-26T10:04:30;101280.31;;;9.94;nan
30967;BME280;17649;51.836;8.330;2023-04-26T10:07:30;101281.16;;;10.35;nan
30967;BME280;17649;51.836;8.330;2023-04-26T10:10:31;101285.91;;;11.02;nan
30967;BME280;17649;51.836;8.330;2023-04-26T10:13:31;101276.53;;;10.81;nan
30967;BME280;17649;51.836;8.330;2023-04-26T10:16:32;101276.25;;;11.05;nan
30967;BME280;17649;51.836;8.330;2023-04-26T10:19:33;101278.28;;;11.18;nan
30967;BME280;17649;51.836;8.330;2023-04-26T10:22:35;101280.69;;;11.74;nan
30967;BME280;17649;51.836;8.330;2023-04-26T10:25:36;101270.13;;;11.61;nan
30967;BME280;17649;51.836;8.330;2023-04-26T10:35:10;101267.22;;;9.98;nan
30967;BME280;17649;51.836;8.330;2023-04-26T10:38:16;101268.91;;;9.57;nan
30967;BME280;17649;51.836;8.330;2023-04-26T10:44:41;101265.19;;;9.42;nan
30967;BME280;17649;51.836;8.330;2023-04-26T10:47:41;101260.53;;;10.13;nan
30967;BME280;17649;51.836;8.330;2023-04-26T10:53:58;101250.75;;;10.40;nan
30967;BME280;17649;51.836;8.330;2023-04-26T10:56:58;101250.41;;;10.29;nan
30967;BME280;17649;51.836;8.330;2023-04-26T11:03:15;101253.91;;;10.47;nan
30967;BME280;17649;51.836;8.330;2023-04-26T11:06:16;101255.22;;;10.36;nan
30967;BME280;17649;51.836;8.330;2023-04-26T11:09:36;101255.59;;;10.85;nan
30967;BME280;17649;51.836;8.330;2023-04-26T11:12:39;101247.69;;;11.78;nan
30967;BME280;17649;51.836;8.330;2023-04-26T11:15:40;101249.59;;;11.74;nan
30967;BME280;17649;51.836;8.330;2023-04-26T11:18:41;101246.03;;;11.23;nan
30967;BME280;17649;51.836;8.330;2023-04-26T11:21:42;101250.19;;;11.45;nan
30967;BME280;17649;51.836;8.330;2023-04-26T11:24:42;101241.81;;;12.09;nan
30967;BME280;17649;51.836;8.330;2023-04-26T11:27:42;101237.47;;;13.67;nan
30967;BME280;17649;51.836;8.330;2023-04-26T11:30:43;101234.22;;;15.72;nan
30967;BME280;17649;51.836;8.330;2023-04-26T11:33:46;101235.16;;;15.71;nan
30967;BME280;17649;51.836;8.330;2023-04-26T11:36:46;101233.25;;;15.61;nan
30967;BME280;17649;51.836;8.330;2023-04-26T11:39:47;101225.28;;;14.26;nan
30967;BME280;17649;51.836;8.330;2023-04-26T11:42:51;101235.72;;;12.43;nan
30967;BME280;17649;51.836;8.330;2023-04-26T11:45:57;101233.88;;;11.43;nan
30967;BME280;17649;51.836;8.330;2023-04-26T11:49:06;101227.19;;;11.56;nan
30967;BME280;17649;51.836;8.330;2023-04-26T11:52:07;101226.81;;;11.98;nan
30967;BME280;17649;51.836;8.330;2023-04-26T11:55:07;101231.09;;;11.11;nan
30967;BME280;17649;51.836;8.330;2023-04-26T11:58:10;101237.81;;;10.96;nan
30967;BME280;17649;51.836;8.330;2023-04-26T12:01:21;101237.09;;;11.65;nan
30967;BME280;17649;51.836;8.330;2023-04-26T12:04:26;101240.22;;;11.72;nan
30967;BME280;17649;51.836;8.330;2023-04-26T12:07:31;101248.09;;;12.38;nan
30967;BME280;17649;51.836;8.330;2023-04-26T12:10:33;101247.38;;;12.18;nan
30967;BME280;17649;51.836;8.330;2023-04-26T12:13:34;101244.13;;;11.46;nan
30967;BME280;17649;51.836;8.330;2023-04-26T12:16:38;101238.69;;;11.33;nan
30967;BME280;17649;51.836;8.330;2023-04-26T12:19:39;101248.38;;;11.64;nan
30967;BME280;17649;51.836;8.330;2023-04-26T12:22:39;101254.66;;;11.77;nan
30967;BME280;17649;51.836;8.330;2023-04-26T12:25:40;101252.91;;;12.28;nan
30967;BME280;17649;51.836;8.330;2023-04-26T12:28:41;101239.88;;;14.57;nan
30967;BME280;17649;51.836;8.330;2023-04-26T12:31:41;101243.31;;;16.05;nan
30967;BME280;17649;51.836;8.330;2023-04-26T12:34:41;101238.09;;;16.18;nan
30967;BME280;17649;51.836;8.330;2023-04-26T12:37:42;101239.63;;;14.19;nan
30967;BME280;17649;51.836;8.330;2023-04-26T12:40:42;101239.78;;;13.27;nan
30967;BME280;17649;51.836;8.330;2023-04-26T12:43:42;101250.28;;;12.45;nan
30967;BME280;17649;51.836;8.330;2023-04-26T12:46:42;101246.59;;;12.16;nan
30967;BME280;17649;51.836;8.330;2023-04-26T12:49:43;101249.13;;;12.18;nan
30967;BME280;17649;51.836;8.330;2023-04-26T12:52:43;101251.09;;;11.80;nan
30967;BME280;17649;51.836;8.330;2023-04-26T12:55:43;101238.84;;;11.64;nan
30967;BME280;17649;51.836;8.330;2023-04-26T12:58:44;101252.59;;;11.84;nan
30967;BME280;17649;51.836;8.330;2023-04-26T13:01:44;101253.31;;;11.51;nan
30967;BME280;17649;51.836;8.330;2023-04-26T13:04:44;101250.66;;;11.70;nan
30967;BME280;17649;51.836;8.330;2023-04-26T13:07:45;101249.66;;;11.73;nan
30967;BME280;17649;51.836;8.330;2023-04-26T13:10:45;101238.44;;;11.91;nan
30967;BME280;17649;51.836;8.330;2023-04-26T13:13:45;101248.25;;;11.84;nan
30967;BME280;17649;51.836;8.330;2023-04-26T13:16:46;101238.59;;;12.70;nan
30967;BME280;17649;51.836;8.330;2023-04-26T13:19:46;101241.28;;;12.68;nan
30967;BME280;17649;51.836;8.330;2023-04-26T13:22:46;101236.38;;;12.46;nan
30967;BME280;17649;51.836;8.330;2023-04-26T13:25:50;101246.13;;;11.92;nan
30967;BME280;17649;51.836;8.330;2023-04-26T13:28:50;101247.09;;;12.07;nan
30967;BME280;17649;51.836;8.330;2023-04-26T13:31:51;101244.50;;;12.07;nan
30967;BME280;17649;51.836;8.330;2023-04-26T13:34:51;101250.34;;;12.28;nan
30967;BME280;17649;51.836;8.330;2023-04-26T13:37:52;101244.53;;;12.56;nan
30967;BME280;17649;51.836;8.330;2023-04-26T13:40:53;101246.47;;;12.68;nan
30967;BME280;17649;51.836;8.330;2023-04-26T13:43:53;101247.03;;;12.58;nan
30967;BME280;17649;51.836;8.330;2023-04-26T13:46:54;101249.81;;;13.18;nan
30967;BME280;17649;51.836;8.330;2023-04-26T13:49:57;101248.84;;;13.50;nan
30967;BME280;17649;51.836;8.330;2023-04-26T13:52:58;101250.78;;;13.47;nan
30967;BME280;17649;51.836;8.330;2023-04-26T13:55:58;101245.28;;;12.58;nan
30967;BME280;17649;51.836;8.330;2023-04-26T13:58:58;101251.06;;;12.63;nan
30967;BME280;17649;51.836;8.330;2023-04-26T14:02:02;101256.66;;;12.56;nan
30967;BME280;17649;51.836;8.330;2023-04-26T14:05:02;101263.63;;;12.55;nan
30967;BME280;17649;51.836;8.330;2023-04-26T14:08:03;101263.09;;;12.64;nan
30967;BME280;17649;51.836;8.330;2023-04-26T14:11:04;101266.03;;;11.92;nan
30967;BME280;17649;51.836;8.330;2023-04-26T14:14:05;101258.06;;;12.45;nan
30967;BME280;17649;51.836;8.330;2023-04-26T14:17:05;101258.53;;;12.69;nan
30967;BME280;17649;51.836;8.330;2023-04-26T14:20:09;101254.84;;;12.24;nan
30967;BME280;17649;51.836;8.330;2023-04-26T14:23:09;101254.56;;;12.13;nan
30967;BME280;17649;51.836;8.330;2023-04-26T14:26:10;101256.59;;;12.24;nan
30967;BME280;17649;51.836;8.330;2023-04-26T14:29:10;101253.81;;;12.60;nan
30967;BME280;17649;51.836;8.330;2023-04-26T14:32:12;101256.81;;;12.19;nan
30967;BME280;17649;51.836;8.330;2023-04-26T14:35:12;101254.53;;;11.44;nan
30967;BME280;17649;51.836;8.330;2023-04-26T14:38:13;101254.28;;;10.95;nan
30967;BME280;17649;51.836;8.330;2023-04-26T14:41:14;101254.38;;;11.11;nan
30967;BME280;17649;51.836;8.330;2023-04-26T14:44:15;101251.34;;;10.65;nan
30967;BME280;17649;51.836;8.330;2023-04-26T14:47:17;101251.69;;;10.95;nan
30967;BME280;17649;51.836;8.330;2023-04-26T14:50:17;101252.53;;;10.96;nan
30967;BME280;17649;51.836;8.330;2023-04-26T14:53:18;101254.50;;;11.27;nan
30967;BME280;17649;51.836;8.330;2023-04-26T14:56:20;101249.97;;;11.32;nan
30967;BME280;17649;51.836;8.330;2023-04-26T14:59:20;101258.69;;;11.83;nan
30967;BME280;17649;51.836;8.330;2023-04-26T15:02:20;101245.00;;;12.14;nan
30967;BME280;17649;51.836;8.330;2023-04-26T15:05:21;101238.59;;;12.21;nan
30967;BME280;17649;51.836;8.330;2023-04-26T15:08:23;101237.66;;;13.02;nan
30967;BME280;17649;51.836;8.330;2023-04-26T15:11:23;101237.75;;;13.32;nan
30967;BME280;17649;51.836;8.330;2023-04-26T15:14:23;101240.09;;;13.81;nan
30967;BME280;17649;51.836;8.330;2023-04-26T15:17:23;101240.66;;;13.72;nan
30967;BME280;17649;51.836;8.330;2023-04-26T15:20:24;101237.41;;;13.83;nan
30967;BME280;17649;51.836;8.330;2023-04-26T15:23:24;101238.91;;;13.42;nan
30967;BME280;17649;51.836;8.330;2023-04-26T15:26:25;101235.47;;;13.72;nan
30967;BME280;17649;51.836;8.330;2023-04-26T15:29:25;101230.31;;;14.43;nan
30967;BME280;17649;51.836;8.330;2023-04-26T15:32:26;101232.75;;;14.46;nan
30967;BME280;17649;51.836;8.330;2023-04-26T15:35:27;101237.75;;;15.71;nan
30967;BME280;17649;51.836;8.330;2023-04-26T15:38:27;101232.44;;;14.22;nan
30967;BME280;17649;51.836;8.330;2023-04-26T15:41:27;101229.44;;;13.71;nan
30967;BME280;17649;51.836;8.330;2023-04-26T15:44:27;101233.91;;;12.92;nan
30967;BME280;17649;51.836;8.330;2023-04-26T15:47:28;101235.03;;;12.39;nan
30967;BME280;17649;51.836;8.330;2023-04-26T15:50:28;101237.38;;;12.44;nan
30967;BME280;17649;51.836;8.330;2023-04-26T15:53:28;101230.44;;;15.24;nan
30967;BME280;17649;51.836;8.330;2023-04-26T15:56:28;101223.59;;;17.23;nan
30967;BME280;17649;51.836;8.330;2023-04-26T15:59:29;101224.63;;;17.10;nan
30967;BME280;17649;51.836;8.330;2023-04-26T16:02:29;101230.59;;;15.48;nan
30967;BME280;17649;51.836;8.330;2023-04-26T16:05:30;101226.44;;;14.91;nan
30967;BME280;17649;51.836;8.330;2023-04-26T16:08:30;101227.22;;;13.50;nan
30967;BME280;17649;51.836;8.330;2023-04-26T16:11:34;101228.09;;;12.40;nan
30967;BME280;17649;51.836;8.330;2023-04-26T16:14:35;101225.59;;;11.88;nan
30967;BME280;17649;51.836;8.330;2023-04-26T16:17:35;101229.94;;;11.53;nan
30967;BME280;17649;51.836;8.330;2023-04-26T16:20:36;101226.19;;;11.58;nan
30967;BME280;17649;51.836;8.330;2023-04-26T16:23:36;101222.31;;;11.84;nan
30967;BME280;17649;51.836;8.330;2023-04-26T16:26:36;101227.09;;;11.40;nan
30967;BME280;17649;51.836;8.330;2023-04-26T16:29:38;101218.13;;;11.82;nan
30967;BME280;17649;51.836;8.330;2023-04-26T16:32:39;101219.91;;;12.14;nan
30967;BME280;17649;51.836;8.330;2023-04-26T16:35:40;101216.97;;;12.38;nan
30967;BME280;17649;51.836;8.330;2023-04-26T16:38:40;101221.91;;;11.75;nan
30967;BME280;17649;51.836;8.330;2023-04-26T16:41:40;101215.41;;;12.18;nan
30967;BME280;17649;51.836;8.330;2023-04-26T16:44:40;101214.75;;;11.97;nan
30967;BME280;17649;51.836;8.330;2023-04-26T16:47:41;101210.59;;;12.43;nan
30967;BME280;17649;51.836;8.330;2023-04-26T16:50:41;101218.13;;;11.82;nan
30967;BME280;17649;51.836;8.330;2023-04-26T16:53:41;101210.50;;;13.08;nan
30967;BME280;17649;51.836;8.330;2023-04-26T16:56:42;101208.97;;;15.98;nan
30967;BME280;17649;51.836;8.330;2023-04-26T16:59:42;101213.22;;;16.37;nan
30967;BME280;17649;51.836;8.330;2023-04-26T17:02:42;101221.47;;;15.01;nan
30967;BME280;17649;51.836;8.330;2023-04-26T17:05:43;101214.13;;;14.38;nan
30967;BME280;17649;51.836;8.330;2023-04-26T17:08:45;101208.59;;;12.64;nan
30967;BME280;17649;51.836;8.330;2023-04-26T17:11:46;101219.03;;;11.63;nan
30967;BME280;17649;51.836;8.330;2023-04-26T17:14:46;101231.34;;;11.24;nan
30967;BME280;17649;51.836;8.330;2023-04-26T17:17:46;101226.81;;;11.10;nan
30967;BME280;17649;51.836;8.330;2023-04-26T17:20:47;101235.00;;;11.01;nan
30967;BME280;17649;51.836;8.330;2023-04-26T17:23:51;101237.13;;;10.55;nan
30967;BME280;17649;51.836;8.330;2023-04-26T17:26:52;101236.56;;;10.49;nan
30967;BME280;17649;51.836;8.330;2023-04-26T17:29:52;101237.84;;;9.99;nan
30967;BME280;17649;51.836;8.330;2023-04-26T17:32:52;101240.94;;;10.07;nan